Time,TemperatureF,DewpointF,PressureIn,WindDirection,WindDirectionDegrees,WindSpeedMPH,WindSpeedGustMPH,Humidity,HourlyPrecipIn,Conditions,Clouds,dailyrainin,SoftwareType,DateUTC
2013-01-20 00:03:00,37.1,32.0,30.29,South,184,0.0,-999.0,83,-99.99,,,0.00,weatherlink.com 1.10,2013-01-20 07:03:00,
2013-01-20 00:18:00,37.0,32.0,30.29,South,184,0.0,-999.0,83,-99.99,,,0.00,weatherlink.com 1.10,2013-01-20 07:18:00,
2013-01-20 00:33:00,36.6,32.0,30.29,South,184,0.0,-999.0,83,-99.99,,,0.00,weatherlink.com 1.10,2013-01-20 07:33:00,
2013-01-20 00:48:00,36.2,32.0,30.29,South,184,0.0,-999.0,83,-99.99,,,0.00,weatherlink.com 1.10,2013-01-20 07:48:00,
2013-01-20 01:03:00,35.7,31.0,30.30,South,184,0.0,-999.0,83,-99.99,,,0.00,weatherlink.com 1.10,2013-01-20 08:03:00,
2013-01-20 01:18:00,35.3,31.0,30.30,South,184,0.0,-999.0,84,-99.99,,,0.00,weatherlink.com 1.10,2013-01-20 08:18:00,
2013-01-20 01:33:00,35.2,31.0,30.30,South,184,0.0,-999.0,84,-99.99,,,0.00,weatherlink.com 1.10,2013-01-20 08:33:00,
2013-01-20 01:48:00,34.9,31.0,30.30,South,184,0.0,-999.0,84,-99.99,,,0.00,weatherlink.com 1.10,2013-01-20 08:48:00,
2013-01-20 02:03:00,35.0,31.0,30.30,South,184,0.0,-999.0,85,-99.99,,,0.00,weatherlink.com 1.10,2013-01-20 09:03:00,
2013-01-20 02:18:00,34.9,31.0,30.29,South,184,0.0,-999.0,85,-99.99,,,0.00,weatherlink.com 1.10,2013-01-20 09:18:00,
2013-01-20 02:33:00,34.9,31.0,30.29,South,184,0.0,-999.0,85,-99.99,,,0.00,weatherlink.com 1.10,2013-01-20 09:33:00,
2013-01-20 02:48:00,34.7,31.0,30.29,South,184,0.0,-999.0,86,-99.99,,,0.00,weatherlink.com 1.10,2013-01-20 09:48:00,
2013-01-20 03:03:00,34.4,30.0,30.28,South,184,0.0,-999.0,85,-99.99,,,0.00,weatherlink.com 1.10,2013-01-20 10:03:00,
2013-01-20 03:18:00,34.3,31.0,30.28,South,184,0.0,-999.0,86,-99.99,,,0.00,weatherlink.com 1.10,2013-01-20 10:18:00,
2013-01-20 03:33:00,34.3,31.0,30.28,South,184,0.0,-999.0,86,-99.99,,,0.00,weatherlink.com 1.10,2013-01-20 10:33:00,
2013-01-20 03:48:00,34.0,30.0,30.28,South,184,0.0,-999.0,86,-99.99,,,0.00,weatherlink.com 1.10,2013-01-20 10:48:00,
2013-01-20 04:03:00,34.0,30.0,30.27,South,184,0.0,-999.0,86,-99.99,,,0.00,weatherlink.com 1.10,2013-01-20 11:03:00,
2013-01-20 04:18:00,33.7,30.0,30.26,South,184,0.0,-999.0,86,-99.99,,,0.00,weatherlink.com 1.10,2013-01-20 11:18:00,
2013-01-20 04:33:00,33.5,30.0,30.26,South,184,0.0,-999.0,87,-99.99,,,0.00,weatherlink.com 1.10,2013-01-20 11:33:00,
2013-01-20 04:48:00,33.2,30.0,30.26,South,184,0.0,-999.0,86,-99.99,,,0.00,weatherlink.com 1.10,2013-01-20 11:48:00,
2013-01-20 05:03:00,33.0,30.0,30.26,South,184,0.0,-999.0,87,-99.99,,,0.00,weatherlink.com 1.10,2013-01-20 12:03:00,
2013-01-20 05:18:00,32.7,29.0,30.27,South,184,0.0,-999.0,87,-99.99,,,0.00,weatherlink.com 1.10,2013-01-20 12:18:00,
2013-01-20 05:33:00,32.6,29.0,30.27,South,184,0.0,-999.0,87,-99.99,,,0.00,weatherlink.com 1.10,2013-01-20 12:33:00,
2013-01-20 05:47:00,32.8,30.0,30.27,South,184,0.0,-999.0,88,-99.99,,,0.00,weatherlink.com 1.10,2013-01-20 12:47:00,
2013-01-20 06:03:00,32.9,30.0,30.28,South,184,0.0,-999.0,88,-99.99,,,0.00,weatherlink.com 1.10,2013-01-20 13:03:00,
2013-01-20 06:18:00,32.6,30.0,30.28,South,184,0.0,-999.0,88,-99.99,,,0.00,weatherlink.com 1.10,2013-01-20 13:18:00,
2013-01-20 06:33:00,32.1,29.0,30.29,South,184,0.0,-999.0,88,-99.99,,,0.00,weatherlink.com 1.10,2013-01-20 13:33:00,
2013-01-20 06:48:00,32.1,29.0,30.30,South,184,0.0,-999.0,88,-99.99,,,0.00,weatherlink.com 1.10,2013-01-20 13:48:00,
2013-01-20 07:03:00,32.4,29.0,30.30,South,184,0.0,-999.0,88,-99.99,,,0.00,weatherlink.com 1.10,2013-01-20 14:03:00,
2013-01-20 07:18:00,33.3,30.0,30.30,South,184,0.0,-999.0,89,-99.99,,,0.00,weatherlink.com 1.10,2013-01-20 14:18:00,
2013-01-20 07:33:00,34.8,32.0,30.30,South,184,0.0,-999.0,89,-99.99,,,0.00,weatherlink.com 1.10,2013-01-20 14:33:00,
2013-01-20 07:48:00,36.9,34.0,30.31,South,184,0.0,-999.0,90,-99.99,,,0.00,weatherlink.com 1.10,2013-01-20 14:48:00,
2013-01-20 08:03:00,39.7,37.0,30.32,South,184,0.0,-999.0,90,-99.99,,,0.00,weatherlink.com 1.10,2013-01-20 15:03:00,
2013-01-20 08:18:00,43.2,41.0,30.32,South,184,0.0,-999.0,90,-99.99,,,0.00,weatherlink.com 1.10,2013-01-20 15:18:00,
2013-01-20 08:33:00,47.3,43.0,30.32,South,184,0.0,-999.0,85,-99.99,,,0.00,weatherlink.com 1.10,2013-01-20 15:33:00,
2013-01-20 08:48:00,50.8,44.0,30.32,SW,234,0.0,-999.0,78,-99.99,,,0.00,weatherlink.com 1.10,2013-01-20 15:48:00,
2013-01-20 09:03:00,53.5,45.0,30.32,SSW,210,0.0,-999.0,73,-99.99,,,0.00,weatherlink.com 1.10,2013-01-20 16:03:00,
2013-01-20 09:18:00,55.8,45.0,30.32,SSW,207,2.0,-999.0,68,-99.99,,,0.00,weatherlink.com 1.10,2013-01-20 16:18:00,
2013-01-20 09:33:00,58.1,46.0,30.32,SSE,165,2.0,-999.0,64,-99.99,,,0.00,weatherlink.com 1.10,2013-01-20 16:33:00,
2013-01-20 09:48:00,60.3,45.0,30.32,South,189,3.0,-999.0,58,-99.99,,,0.00,weatherlink.com 1.10,2013-01-20 16:48:00,
2013-01-20 10:03:00,62.4,46.0,30.31,SW,230,4.0,-999.0,55,-99.99,,,0.00,weatherlink.com 1.10,2013-01-20 17:03:00,
2013-01-20 10:18:00,64.5,45.0,30.31,WSW,246,3.0,-999.0,50,-99.99,,,0.00,weatherlink.com 1.10,2013-01-20 17:18:00,
2013-01-20 10:33:00,65.9,44.0,30.30,SW,228,0.0,-999.0,46,-99.99,,,0.00,weatherlink.com 1.10,2013-01-20 17:33:00,
2013-01-20 10:48:00,66.8,45.0,30.29,West,277,2.0,-999.0,45,-99.99,,,0.00,weatherlink.com 1.10,2013-01-20 17:48:00,
2013-01-20 11:03:00,67.5,44.0,30.27,WSW,241,0.0,-999.0,43,-99.99,,,0.00,weatherlink.com 1.10,2013-01-20 18:03:00,
2013-01-20 11:18:00,68.8,43.0,30.26,South,169,4.0,-999.0,39,-99.99,,,0.00,weatherlink.com 1.10,2013-01-20 18:18:00,
2013-01-20 11:33:00,68.9,41.0,30.25,SSW,192,0.0,-999.0,36,-99.99,,,0.00,weatherlink.com 1.10,2013-01-20 18:33:00,
2013-01-20 11:48:00,69.5,41.0,30.23,South,178,0.0,-999.0,36,-99.99,,,0.00,weatherlink.com 1.10,2013-01-20 18:48:00,
2013-01-20 12:03:00,70.4,40.0,30.22,WSW,239,1.0,-999.0,33,-99.99,,,0.00,weatherlink.com 1.10,2013-01-20 19:03:00,
2013-01-20 12:18:00,71.2,42.0,30.21,SW,222,0.0,-999.0,35,-99.99,,,0.00,weatherlink.com 1.10,2013-01-20 19:18:00,
2013-01-20 12:33:00,71.9,42.0,30.20,SSW,213,2.0,-999.0,34,-99.99,,,0.00,weatherlink.com 1.10,2013-01-20 19:33:00,
2013-01-20 12:48:00,71.7,41.0,30.19,SSE,163,11.0,-999.0,33,-99.99,,,0.00,weatherlink.com 1.10,2013-01-20 19:48:00,
2013-01-20 13:03:00,72.3,39.0,30.18,SW,215,3.0,-999.0,30,-99.99,,,0.00,weatherlink.com 1.10,2013-01-20 20:03:00,
2013-01-20 13:18:00,72.9,40.0,30.18,WSW,258,3.0,-999.0,30,-99.99,,,0.00,weatherlink.com 1.10,2013-01-20 20:18:00,
2013-01-20 13:33:00,73.1,39.0,30.17,SSW,210,2.0,-999.0,29,-99.99,,,0.00,weatherlink.com 1.10,2013-01-20 20:33:00,
2013-01-20 13:48:00,72.0,38.0,30.17,WSW,238,0.0,-999.0,29,-99.99,,,0.00,weatherlink.com 1.10,2013-01-20 20:48:00,
2013-01-20 14:03:00,71.3,38.0,30.16,SSW,196,1.0,-999.0,30,-99.99,,,0.00,weatherlink.com 1.10,2013-01-20 21:03:00,
2013-01-20 14:18:00,71.4,38.0,30.15,SW,217,0.0,-999.0,30,-99.99,,,0.00,weatherlink.com 1.10,2013-01-20 21:18:00,
2013-01-20 14:33:00,71.8,39.0,30.15,SW,228,0.0,-999.0,30,-99.99,,,0.00,weatherlink.com 1.10,2013-01-20 21:33:00,
2013-01-20 14:48:00,71.0,39.0,30.15,SSE,166,5.0,-999.0,31,-99.99,,,0.00,weatherlink.com 1.10,2013-01-20 21:48:00,
2013-01-20 15:03:00,70.3,40.0,30.16,SSW,203,2.0,-999.0,33,-99.99,,,0.00,weatherlink.com 1.10,2013-01-20 22:03:00,
2013-01-20 15:18:00,70.2,40.0,30.15,South,169,0.0,-999.0,33,-99.99,,,0.00,weatherlink.com 1.10,2013-01-20 22:18:00,
2013-01-20 15:33:00,69.7,41.0,30.15,SW,222,0.0,-999.0,36,-99.99,,,0.00,weatherlink.com 1.10,2013-01-20 22:33:00,
2013-01-20 15:48:00,69.2,42.0,30.15,SSW,200,0.0,-999.0,37,-99.99,,,0.00,weatherlink.com 1.10,2013-01-20 22:48:00,
2013-01-20 16:03:00,68.2,42.0,30.15,ESE,122,2.0,-999.0,39,-99.99,,,0.00,weatherlink.com 1.10,2013-01-20 23:03:00,
2013-01-20 16:18:00,67.4,42.0,30.15,South,186,2.0,-999.0,40,-99.99,,,0.00,weatherlink.com 1.10,2013-01-20 23:18:00,
2013-01-20 16:33:00,66.7,43.0,30.16,SSW,194,2.0,-999.0,42,-99.99,,,0.00,weatherlink.com 1.10,2013-01-20 23:33:00,
2013-01-20 16:48:00,65.6,44.0,30.15,South,184,2.0,-999.0,45,-99.99,,,0.00,weatherlink.com 1.10,2013-01-20 23:48:00,
2013-01-20 17:03:00,64.4,44.0,30.16,South,189,0.0,-999.0,47,-99.99,,,0.00,weatherlink.com 1.10,2013-01-21 00:03:00,
2013-01-20 17:18:00,63.3,44.0,30.16,South,189,0.0,-999.0,49,-99.99,,,0.00,weatherlink.com 1.10,2013-01-21 00:18:00,
2013-01-20 17:33:00,61.6,43.0,30.16,South,189,0.0,-999.0,51,-99.99,,,0.00,weatherlink.com 1.10,2013-01-21 00:33:00,
2013-01-20 17:48:00,60.0,44.0,30.17,South,189,0.0,-999.0,55,-99.99,,,0.00,weatherlink.com 1.10,2013-01-21 00:48:00,
2013-01-20 18:03:00,59.0,44.0,30.17,South,189,0.0,-999.0,57,-99.99,,,0.00,weatherlink.com 1.10,2013-01-21 01:03:00,
2013-01-20 18:18:00,58.0,44.0,30.17,South,189,0.0,-999.0,59,-99.99,,,0.00,weatherlink.com 1.10,2013-01-21 01:18:00,
2013-01-20 18:33:00,57.0,43.0,30.18,South,189,0.0,-999.0,61,-99.99,,,0.00,weatherlink.com 1.10,2013-01-21 01:33:00,
2013-01-20 18:48:00,55.5,42.0,30.18,South,189,0.0,-999.0,62,-99.99,,,0.00,weatherlink.com 1.10,2013-01-21 01:48:00,
2013-01-20 19:03:00,53.5,42.0,30.18,South,189,0.0,-999.0,65,-99.99,,,0.00,weatherlink.com 1.10,2013-01-21 02:03:00,
2013-01-20 19:33:00,50.3,41.0,30.19,South,189,0.0,-999.0,70,-99.99,,,0.00,weatherlink.com 1.10,2013-01-21 02:33:00,
2013-01-20 19:48:00,49.2,41.0,30.19,South,189,0.0,-999.0,72,-99.99,,,0.00,weatherlink.com 1.10,2013-01-21 02:48:00,
2013-01-20 20:03:00,48.5,40.0,30.19,South,189,0.0,-999.0,73,-99.99,,,0.00,weatherlink.com 1.10,2013-01-21 03:03:00,
2013-01-20 20:18:00,47.7,40.0,30.19,South,189,0.0,-999.0,75,-99.99,,,0.00,weatherlink.com 1.10,2013-01-21 03:18:00,
2013-01-20 20:33:00,47.0,39.0,30.19,South,189,0.0,-999.0,75,-99.99,,,0.00,weatherlink.com 1.10,2013-01-21 03:33:00,
2013-01-20 20:48:00,46.4,39.0,30.20,South,189,0.0,-999.0,76,-99.99,,,0.00,weatherlink.com 1.10,2013-01-21 03:48:00,
2013-01-20 21:03:00,45.9,39.0,30.21,South,189,0.0,-999.0,76,-99.99,,,0.00,weatherlink.com 1.10,2013-01-21 04:03:00,
2013-01-20 21:18:00,45.3,39.0,30.21,South,189,0.0,-999.0,77,-99.99,,,0.00,weatherlink.com 1.10,2013-01-21 04:18:00,
2013-01-20 21:33:00,44.8,38.0,30.20,South,189,0.0,-999.0,77,-99.99,,,0.00,weatherlink.com 1.10,2013-01-21 04:33:00,
2013-01-20 21:48:00,44.3,38.0,30.21,South,189,0.0,-999.0,79,-99.99,,,0.00,weatherlink.com 1.10,2013-01-21 04:48:00,
2013-01-20 22:03:00,44.1,38.0,30.21,South,189,0.0,-999.0,79,-99.99,,,0.00,weatherlink.com 1.10,2013-01-21 05:03:00,
2013-01-20 22:18:00,43.6,38.0,30.21,South,189,0.0,-999.0,80,-99.99,,,0.00,weatherlink.com 1.10,2013-01-21 05:18:00,
2013-01-20 22:33:00,43.2,37.0,30.21,South,189,0.0,-999.0,80,-99.99,,,0.00,weatherlink.com 1.10,2013-01-21 05:33:00,
2013-01-20 22:48:00,42.8,37.0,30.21,South,189,0.0,-999.0,81,-99.99,,,0.00,weatherlink.com 1.10,2013-01-21 05:48:00,
2013-01-20 23:03:00,42.3,37.0,30.20,South,189,0.0,-999.0,81,-99.99,,,0.00,weatherlink.com 1.10,2013-01-21 06:03:00,
2013-01-20 23:18:00,41.9,37.0,30.20,South,189,0.0,-999.0,82,-99.99,,,0.00,weatherlink.com 1.10,2013-01-21 06:18:00,
2013-01-20 23:33:00,41.4,36.0,30.20,South,189,0.0,-999.0,82,-99.99,,,0.00,weatherlink.com 1.10,2013-01-21 06:33:00,
2013-01-20 23:48:00,41.1,36.0,30.20,South,189,0.0,-999.0,83,-99.99,,,0.00,weatherlink.com 1.10,2013-01-21 06:48:00,